Haoxiang 36 — BLBM — position and weather

sailwx.info

Track history (hours):
 
Tides and Currents Weather Stations Pressure Air Temp Water Temp Dewpoint Dewpoint Depression Visibility Wind Speed Wind Dir Waves Ship Positions

Haoxiang 36

Last reported at 2018-Jun-13 10:05 UTC. Time now 2018-Jun-18 18:57 UTC.
Position N 37°43' E 119°51'.

Length 85 m; draft 5.4 m.

Type: Tanker. MMSI: 412419970.

Date/timePositionNaut miles runAvg speedWind from/ knotsBaromVisibWave heightAir tempDewpointWater temp
2018-Jun-13 10:05N 37°43' E 119°51'1 7.8
2018-Jun-13 09:54N 37°44' E 119°52'19 7.8
2018-Jun-13 07:29N 37°55' E 120°11'4 8.7
2018-Jun-13 06:59N 37°58' E 120°15'4 9.0
2018-Jun-13 06:31N 37°60' E 120°20'5 9.1
2018-Jun-13 06:00N 38°02' E 120°25'6 9.4
2018-Jun-13 05:25N 38°03' E 120°32'410.3
2018-Jun-13 05:00N 38°03' E 120°37'510.7
2018-Jun-13 04:30N 38°01' E 120°44'610.9
2018-Jun-13 03:59N 38°00' E 120°51'41 3.8
2018-Jun-12 17:06N 37°49' E 121°41'2 8.3
2018-Jun-12 16:54N 37°48' E 121°43'3 8.3
2018-Jun-12 16:30N 37°47' E 121°47'935209.2
2018-Jun-12 12:01N 22°15' E 120°18'112.1
2018-Jun-12 11:57N 22°16' E 120°18'612.7
2018-Jun-12 11:30N 22°21' E 120°16'612.3
2018-Jun-12 11:00N 22°27' E 120°13'612.3
2018-Jun-12 10:30N 22°32' E 120°11'510.7
2018-Jun-12 10:00N 22°37' E 120°13'4 8.1
2018-Jun-12 09:30N 22°37' E 120°17'0 0.4
2018-Jun-12 08:57N 22°36' E 120°17'0 0.0
2018-Jun-12 08:27N 22°36' E 120°17'0 0.0
2018-Jun-12 07:57N 22°36' E 120°17'0 0.0
2018-Jun-12 07:27N 22°36' E 120°17'0 0.0
2018-Jun-12 06:51N 22°36' E 120°17'0 0.0
2018-Jun-12 06:27N 22°36' E 120°17'0 0.0
2018-Jun-12 05:57N 22°36' E 120°17'0 0.0
2018-Jun-12 05:27N 22°36' E 120°17'0 0.0
2018-Jun-12 04:57N 22°36' E 120°17'0 0.0
2018-Jun-12 04:27N 22°36' E 120°17'0 0.0
2018-Jun-12 03:51N 22°36' E 120°17'0 0.0
2018-Jun-12 03:27N 22°36' E 120°17'0 0.0
2018-Jun-12 02:56N 22°36' E 120°17'0 0.0
2018-Jun-12 02:26N 22°36' E 120°17'0 0.0
2018-Jun-12 01:50N 22°36' E 120°17'0 0.0
2018-Jun-12 01:20N 22°36' E 120°17'0 0.0
2018-Jun-12 00:56N 22°36' E 120°17'0 0.0
2018-Jun-12 00:26N 22°36' E 120°17'0 0.0
2018-Jun-11 23:56N 22°36' E 120°17'0 0.0
2018-Jun-11 23:20N 22°36' E 120°17'0 0.0
2018-Jun-11 22:56N 22°36' E 120°17'0 0.0
2018-Jun-11 22:26N 22°36' E 120°17'0 0.0
2018-Jun-11 21:56N 22°36' E 120°17'0 0.0
2018-Jun-11 21:26N 22°36' E 120°17'0 0.0
2018-Jun-11 20:50N 22°36' E 120°17'0 0.1
2018-Jun-11 20:20N 22°36' E 120°17'0 0.1
2018-Jun-11 19:50N 22°36' E 120°17'0 0.0
2018-Jun-11 19:26N 22°36' E 120°17'0 0.0
2018-Jun-11 18:56N 22°36' E 120°17'0 0.0
2018-Jun-11 18:26N 22°36' E 120°17'0 0.0
2018-Jun-11 17:56N 22°36' E 120°17'0 0.0
2018-Jun-11 17:26N 22°36' E 120°17'0 0.0
2018-Jun-11 16:56N 22°36' E 120°17'0 0.0
2018-Jun-11 16:26N 22°36' E 120°17'0 0.0
2018-Jun-11 15:50N 22°36' E 120°17'0 0.0
2018-Jun-11 15:26N 22°36' E 120°17'0 0.0
2018-Jun-11 14:56N 22°36' E 120°17'0 0.0
2018-Jun-11 14:14N 22°36' E 120°17'0 0.0
2018-Jun-11 12:49N 22°36' E 120°17'0 0.0
2018-Jun-11 11:55N 22°36' E 120°17'0 0.0
2018-Jun-11 11:25N 22°36' E 120°17'0 0.0
2018-Jun-11 10:43N 22°36' E 120°17'0 0.0
2018-Jun-11 10:25N 22°36' E 120°17'0 0.0
2018-Jun-11 09:49N 22°36' E 120°17'0 0.0
2018-Jun-11 09:19N 22°36' E 120°17'0 0.0
2018-Jun-11 08:55N 22°36' E 120°17'0 0.0
2018-Jun-11 08:19N 22°36' E 120°17'0 0.0
2018-Jun-11 07:55N 22°36' E 120°17'0 0.0
2018-Jun-11 07:25N 22°36' E 120°17'0 0.0
2018-Jun-11 06:55N 22°36' E 120°17'0 0.0
2018-Jun-11 06:25N 22°36' E 120°17'0 0.0
2018-Jun-11 05:55N 22°36' E 120°17'0 0.0
2018-Jun-11 05:25N 22°36' E 120°17'0 0.0
2018-Jun-11 04:37N 22°36' E 120°17'0 0.0
2018-Jun-11 04:25N 22°36' E 120°17'0 0.0
2018-Jun-11 03:55N 22°36' E 120°17'0 0.0
2018-Jun-11 03:25N 22°36' E 120°17'0 0.0
2018-Jun-11 02:49N 22°36' E 120°17'0 0.1
2018-Jun-11 02:25N 22°36' E 120°17'0 0.1
2018-Jun-11 01:55N 22°36' E 120°17'0 0.0
2018-Jun-11 01:25N 22°36' E 120°17'0 0.0
2018-Jun-11 00:55N 22°36' E 120°17'0 0.0
2018-Jun-11 00:25N 22°36' E 120°17'0 0.0
2018-Jun-10 23:55N 22°36' E 120°17'0 0.0
2018-Jun-10 23:25N 22°36' E 120°17'0 0.0
2018-Jun-10 22:55N 22°36' E 120°17'0 0.0
2018-Jun-10 22:25N 22°36' E 120°17'0 0.0
2018-Jun-10 21:55N 22°36' E 120°17'0 0.0
2018-Jun-10 21:19N 22°36' E 120°17'0 0.0
2018-Jun-10 20:55N 22°36' E 120°17'0 0.0
2018-Jun-10 20:25N 22°36' E 120°17'0 0.0
2018-Jun-10 19:55N 22°36' E 120°17'0 0.0
2018-Jun-10 19:25N 22°36' E 120°17'0 0.0
2018-Jun-10 18:55N 22°36' E 120°17'0 0.0
2018-Jun-10 18:25N 22°36' E 120°17'0 0.0
2018-Jun-10 17:55N 22°36' E 120°17'0 0.0
2018-Jun-10 17:25N 22°36' E 120°17'0 0.0
2018-Jun-10 16:49N 22°36' E 120°17'0 0.0
2018-Jun-10 16:25N 22°36' E 120°17'0 0.0
2018-Jun-10 15:55N 22°36' E 120°17'0 0.0
2018-Jun-10 15:25N 22°36' E 120°17'0 0.0
2018-Jun-10 14:49N 22°36' E 120°17'0 0.0
2018-Jun-10 13:55N 22°36' E 120°17'0 0.0
2018-Jun-10 13:25N 22°36' E 120°17'0 0.0
2018-Jun-10 12:55N 22°36' E 120°17'0 0.0
2018-Jun-10 12:25N 22°36' E 120°17'0 0.0
2018-Jun-10 11:55N 22°36' E 120°17'0 0.0
2018-Jun-10 11:25N 22°36' E 120°17'0 0.0
2018-Jun-10 10:55N 22°36' E 120°17'0 0.0
2018-Jun-10 10:25N 22°36' E 120°17'0 0.0
2018-Jun-10 09:49N 22°36' E 120°17'0 0.0
2018-Jun-10 09:25N 22°36' E 120°17'0 0.0
2018-Jun-10 08:49N 22°36' E 120°17'0 0.0
2018-Jun-10 08:13N 22°36' E 120°17'0 0.0
2018-Jun-10 07:55N 22°36' E 120°17'0 0.0
2018-Jun-10 07:25N 22°36' E 120°17'0 0.0
2018-Jun-10 06:55N 22°36' E 120°17'0 0.0
2018-Jun-10 06:25N 22°36' E 120°17'0 0.0
2018-Jun-10 05:53N 22°36' E 120°17'1 3.2
2018-Jun-10 05:30N 22°37' E 120°16'5 9.3
2018-Jun-10 05:00N 22°37' E 120°11'4 7.2
2018-Jun-10 04:30N 22°33' E 120°10'510.2
2018-Jun-10 04:00N 22°28' E 120°11'511.2
2018-Jun-10 03:30N 22°23' E 120°14'612.0
2018-Jun-10 03:00N 22°18' E 120°17'  
2018-Jun-04 12:04N 24°13' E 118°25'1 9.1
2018-Jun-04 11:57N 24°13' E 118°24'13 8.6
2018-Jun-04 10:27N 24°04' E 118°13'16 8.1
2018-Jun-04 08:25N 23°54' E 117°59'14 8.3
2018-Jun-04 06:47N 23°46' E 117°47'3 9.1
2018-Jun-04 06:24N 23°44' E 117°44'4 9.3
2018-Jun-04 06:00N 23°42' E 117°41'5 9.2
2018-Jun-04 05:26N 23°39' E 117°36'4 9.8
2018-Jun-04 05:00N 23°36' E 117°33'5 9.8
2018-Jun-04 04:28N 23°33' E 117°28'6 9.4
2018-Jun-04 03:52N 23°30' E 117°23'9 8.8
2018-Jun-04 02:53N 23°26' E 117°14'  
Track history (hours):
 
Tides and Currents Weather Stations Pressure Air Temp Water Temp Dewpoint Dewpoint Depression Visibility Wind Speed Wind Dir Waves Ship Positions

Haoxiang 36

Last reported at 2018-Jun-13 10:05 UTC. Time now 2018-Jun-18 18:57 UTC.
Position N 37°43' E 119°51'.

Length 85 m; draft 5.4 m.

Type: Tanker. MMSI: 412419970.

Date/timePositionNaut miles runAvg speedWind from/ knotsBaromVisibWave heightAir tempDewpointWater temp
2018-Jun-13 10:05N 37°43' E 119°51'1 7.8
2018-Jun-13 09:54N 37°44' E 119°52'19 7.8
2018-Jun-13 07:29N 37°55' E 120°11'4 8.7
2018-Jun-13 06:59N 37°58' E 120°15'4 9.0
2018-Jun-13 06:31N 37°60' E 120°20'5 9.1
2018-Jun-13 06:00N 38°02' E 120°25'6 9.4
2018-Jun-13 05:25N 38°03' E 120°32'410.3
2018-Jun-13 05:00N 38°03' E 120°37'510.7
2018-Jun-13 04:30N 38°01' E 120°44'610.9
2018-Jun-13 03:59N 38°00' E 120°51'41 3.8
2018-Jun-12 17:06N 37°49' E 121°41'2 8.3
2018-Jun-12 16:54N 37°48' E 121°43'3 8.3
2018-Jun-12 16:30N 37°47' E 121°47'935209.2
2018-Jun-12 12:01N 22°15' E 120°18'112.1
2018-Jun-12 11:57N 22°16' E 120°18'612.7
2018-Jun-12 11:30N 22°21' E 120°16'612.3
2018-Jun-12 11:00N 22°27' E 120°13'612.3
2018-Jun-12 10:30N 22°32' E 120°11'510.7
2018-Jun-12 10:00N 22°37' E 120°13'4 8.1
2018-Jun-12 09:30N 22°37' E 120°17'0 0.4
2018-Jun-12 08:57N 22°36' E 120°17'0 0.0
2018-Jun-12 08:27N 22°36' E 120°17'0 0.0
2018-Jun-12 07:57N 22°36' E 120°17'0 0.0
2018-Jun-12 07:27N 22°36' E 120°17'0 0.0
2018-Jun-12 06:51N 22°36' E 120°17'0 0.0
2018-Jun-12 06:27N 22°36' E 120°17'0 0.0
2018-Jun-12 05:57N 22°36' E 120°17'0 0.0
2018-Jun-12 05:27N 22°36' E 120°17'0 0.0
2018-Jun-12 04:57N 22°36' E 120°17'0 0.0
2018-Jun-12 04:27N 22°36' E 120°17'0 0.0
2018-Jun-12 03:51N 22°36' E 120°17'0 0.0
2018-Jun-12 03:27N 22°36' E 120°17'0 0.0
2018-Jun-12 02:56N 22°36' E 120°17'0 0.0
2018-Jun-12 02:26N 22°36' E 120°17'0 0.0
2018-Jun-12 01:50N 22°36' E 120°17'0 0.0
2018-Jun-12 01:20N 22°36' E 120°17'0 0.0
2018-Jun-12 00:56N 22°36' E 120°17'0 0.0
2018-Jun-12 00:26N 22°36' E 120°17'0 0.0
2018-Jun-11 23:56N 22°36' E 120°17'0 0.0
2018-Jun-11 23:20N 22°36' E 120°17'0 0.0
2018-Jun-11 22:56N 22°36' E 120°17'0 0.0
2018-Jun-11 22:26N 22°36' E 120°17'0 0.0
2018-Jun-11 21:56N 22°36' E 120°17'0 0.0
2018-Jun-11 21:26N 22°36' E 120°17'0 0.0
2018-Jun-11 20:50N 22°36' E 120°17'0 0.1
2018-Jun-11 20:20N 22°36' E 120°17'0 0.1
2018-Jun-11 19:50N 22°36' E 120°17'0 0.0
2018-Jun-11 19:26N 22°36' E 120°17'0 0.0
2018-Jun-11 18:56N 22°36' E 120°17'0 0.0
2018-Jun-11 18:26N 22°36' E 120°17'0 0.0
2018-Jun-11 17:56N 22°36' E 120°17'0 0.0
2018-Jun-11 17:26N 22°36' E 120°17'0 0.0
2018-Jun-11 16:56N 22°36' E 120°17'0 0.0
2018-Jun-11 16:26N 22°36' E 120°17'0 0.0
2018-Jun-11 15:50N 22°36' E 120°17'0 0.0
2018-Jun-11 15:26N 22°36' E 120°17'0 0.0
2018-Jun-11 14:56N 22°36' E 120°17'0 0.0
2018-Jun-11 14:14N 22°36' E 120°17'0 0.0
2018-Jun-11 12:49N 22°36' E 120°17'0 0.0
2018-Jun-11 11:55N 22°36' E 120°17'0 0.0
2018-Jun-11 11:25N 22°36' E 120°17'0 0.0
2018-Jun-11 10:43N 22°36' E 120°17'0 0.0
2018-Jun-11 10:25N 22°36' E 120°17'0 0.0
2018-Jun-11 09:49N 22°36' E 120°17'0 0.0
2018-Jun-11 09:19N 22°36' E 120°17'0 0.0
2018-Jun-11 08:55N 22°36' E 120°17'0 0.0
2018-Jun-11 08:19N 22°36' E 120°17'0 0.0
2018-Jun-11 07:55N 22°36' E 120°17'0 0.0
2018-Jun-11 07:25N 22°36' E 120°17'0 0.0
2018-Jun-11 06:55N 22°36' E 120°17'0 0.0
2018-Jun-11 06:25N 22°36' E 120°17'0 0.0
2018-Jun-11 05:55N 22°36' E 120°17'0 0.0
2018-Jun-11 05:25N 22°36' E 120°17'0 0.0
2018-Jun-11 04:37N 22°36' E 120°17'0 0.0
2018-Jun-11 04:25N 22°36' E 120°17'0 0.0
2018-Jun-11 03:55N 22°36' E 120°17'0 0.0
2018-Jun-11 03:25N 22°36' E 120°17'0 0.0
2018-Jun-11 02:49N 22°36' E 120°17'0 0.1
2018-Jun-11 02:25N 22°36' E 120°17'0 0.1
2018-Jun-11 01:55N 22°36' E 120°17'0 0.0
2018-Jun-11 01:25N 22°36' E 120°17'0 0.0
2018-Jun-11 00:55N 22°36' E 120°17'0 0.0
2018-Jun-11 00:25N 22°36' E 120°17'0 0.0
2018-Jun-10 23:55N 22°36' E 120°17'0 0.0
2018-Jun-10 23:25N 22°36' E 120°17'0 0.0
2018-Jun-10 22:55N 22°36' E 120°17'0 0.0
2018-Jun-10 22:25N 22°36' E 120°17'0 0.0
2018-Jun-10 21:55N 22°36' E 120°17'0 0.0
2018-Jun-10 21:19N 22°36' E 120°17'0 0.0
2018-Jun-10 20:55N 22°36' E 120°17'0 0.0
2018-Jun-10 20:25N 22°36' E 120°17'0 0.0
2018-Jun-10 19:55N 22°36' E 120°17'0 0.0
2018-Jun-10 19:25N 22°36' E 120°17'0 0.0
2018-Jun-10 18:55N 22°36' E 120°17'0 0.0
2018-Jun-10 18:25N 22°36' E 120°17'0 0.0
2018-Jun-10 17:55N 22°36' E 120°17'0 0.0
2018-Jun-10 17:25N 22°36' E 120°17'0 0.0
2018-Jun-10 16:49N 22°36' E 120°17'0 0.0
2018-Jun-10 16:25N 22°36' E 120°17'0 0.0
2018-Jun-10 15:55N 22°36' E 120°17'0 0.0
2018-Jun-10 15:25N 22°36' E 120°17'0 0.0
2018-Jun-10 14:49N 22°36' E 120°17'0 0.0
2018-Jun-10 13:55N 22°36' E 120°17'0 0.0
2018-Jun-10 13:25N 22°36' E 120°17'0 0.0
2018-Jun-10 12:55N 22°36' E 120°17'0 0.0
2018-Jun-10 12:25N 22°36' E 120°17'0 0.0
2018-Jun-10 11:55N 22°36' E 120°17'0 0.0
2018-Jun-10 11:25N 22°36' E 120°17'0 0.0
2018-Jun-10 10:55N 22°36' E 120°17'0 0.0
2018-Jun-10 10:25N 22°36' E 120°17'0 0.0
2018-Jun-10 09:49N 22°36' E 120°17'0 0.0
2018-Jun-10 09:25N 22°36' E 120°17'0 0.0
2018-Jun-10 08:49N 22°36' E 120°17'0 0.0
2018-Jun-10 08:13N 22°36' E 120°17'0 0.0
2018-Jun-10 07:55N 22°36' E 120°17'0 0.0
2018-Jun-10 07:25N 22°36' E 120°17'0 0.0
2018-Jun-10 06:55N 22°36' E 120°17'0 0.0
2018-Jun-10 06:25N 22°36' E 120°17'0 0.0
2018-Jun-10 05:53N 22°36' E 120°17'1 3.2
2018-Jun-10 05:30N 22°37' E 120°16'5 9.3
2018-Jun-10 05:00N 22°37' E 120°11'4 7.2
2018-Jun-10 04:30N 22°33' E 120°10'510.2
2018-Jun-10 04:00N 22°28' E 120°11'511.2
2018-Jun-10 03:30N 22°23' E 120°14'612.0
2018-Jun-10 03:00N 22°18' E 120°17'  
2018-Jun-04 12:04N 24°13' E 118°25'1 9.1
2018-Jun-04 11:57N 24°13' E 118°24'13 8.6
2018-Jun-04 10:27N 24°04' E 118°13'16 8.1
2018-Jun-04 08:25N 23°54' E 117°59'14 8.3
2018-Jun-04 06:47N 23°46' E 117°47'3 9.1
2018-Jun-04 06:24N 23°44' E 117°44'4 9.3
2018-Jun-04 06:00N 23°42' E 117°41'5 9.2
2018-Jun-04 05:26N 23°39' E 117°36'4 9.8
2018-Jun-04 05:00N 23°36' E 117°33'5 9.8
2018-Jun-04 04:28N 23°33' E 117°28'6 9.4
2018-Jun-04 03:52N 23°30' E 117°23'9 8.8
2018-Jun-04 02:53N 23°26' E 117°14'  

Dump ship's entire track history